Time;durP1;ratioP1;P1;durP2;ratioP2;P2;SDS_P1;SDS_P2;PMS_P1;PMS_P2;Temp;Humidity;BMP_temperature;BMP_pressure;BME280_temperature;BME280_humidity;BME280_pressure;Samples;Min_cycle;Max_cycle;Signal;HPM_P1;HPM_P2
2022/01/02 00:03:00;;;;;;;277.65;22.17;;;1.50;99.90;;;;;;20611237;28;20034;-75
2022/01/02 00:13:02;;;;;;;81.05;14.95;;;1.40;99.90;;;;;;20597089;28;20053;-75
2022/01/02 00:23:06;;;;;;;194.73;21.48;;;1.40;99.90;;;;;;20605780;28;20069;-76
2022/01/02 00:33:08;;;;;;;76.93;17.85;;;1.40;99.90;;;;;;20587270;28;20034;-76
2022/01/02 00:43:13;;;;;;;51.95;17.88;;;1.40;99.90;;;;;;20630498;28;20030;-75
2022/01/02 00:53:18;;;;;;;170.25;22.13;;;1.50;99.90;;;;;;20609499;28;20037;-75
2022/01/02 01:03:29;;;;;;;37.85;16.33;;;1.50;99.90;;;;;;20580562;28;20541;-75
2022/01/02 01:13:30;;;;;;;79.80;18.33;;;1.60;99.90;;;;;;20606791;28;20071;-75
2022/01/02 01:23:32;;;;;;;58.08;19.50;;;1.70;99.90;;;;;;20623917;28;20093;-75
2022/01/02 01:33:33;;;;;;;48.30;18.73;;;1.70;99.90;;;;;;20623996;28;20031;-76
2022/01/02 01:43:40;;;;;;;36.22;17.33;;;1.80;99.90;;;;;;20637872;28;20080;-76
2022/01/02 01:53:41;;;;;;;74.80;19.67;;;1.80;99.90;;;;;;20558291;28;20046;-76
2022/01/02 02:03:42;;;;;;;128.63;19.60;;;1.90;99.90;;;;;;20641363;28;20041;-75
2022/01/02 02:13:45;;;;;;;63.83;20.13;;;1.90;99.90;;;;;;20675715;28;20417;-76
2022/01/02 02:23:46;;;;;;;55.97;19.42;;;2.00;99.90;;;;;;20607148;28;20046;-76
2022/01/02 02:33:47;;;;;;;106.00;21.17;;;2.00;99.90;;;;;;20653379;28;20026;-76
2022/01/02 02:44:00;;;;;;;87.15;18.27;;;2.10;99.90;;;;;;20637297;28;20062;-75
2022/01/02 02:54:02;;;;;;;128.75;18.65;;;2.00;99.90;;;;;;20612941;28;20061;-75
2022/01/02 03:04:04;;;;;;;109.35;18.05;;;1.90;99.90;;;;;;20599086;28;20066;-75
2022/01/02 03:14:06;;;;;;;192.05;18.48;;;1.80;99.90;;;;;;20632353;28;20031;-76
2022/01/02 03:24:07;;;;;;;227.02;21.95;;;1.90;99.90;;;;;;20652700;28;20497;-75
2022/01/02 03:34:09;;;;;;;196.02;20.30;;;1.80;99.90;;;;;;20669190;28;20084;-76
2022/01/02 03:44:10;;;;;;;184.68;18.33;;;1.70;99.90;;;;;;20649937;28;20030;-76
2022/01/02 03:54:11;;;;;;;81.97;14.65;;;1.70;99.90;;;;;;20649807;28;20031;-75
2022/01/02 04:04:12;;;;;;;134.10;16.80;;;1.60;99.90;;;;;;20649421;28;20044;-75
2022/01/02 04:14:13;;;;;;;128.63;16.67;;;1.60;99.90;;;;;;20648663;28;20516;-75
2022/01/02 04:24:15;;;;;;;127.07;17.50;;;1.50;99.90;;;;;;20649032;28;20062;-75
2022/01/02 04:34:16;;;;;;;165.23;16.95;;;1.50;99.90;;;;;;20645815;28;20448;-75
2022/01/02 04:44:17;;;;;;;77.45;14.15;;;1.40;99.90;;;;;;20645775;28;20038;-75
2022/01/02 04:54:18;;;;;;;39.03;13.90;;;1.30;99.90;;;;;;20662768;28;20085;-75
2022/01/02 05:04:19;;;;;;;53.78;13.82;;;1.40;99.90;;;;;;20645401;28;20550;-75
2022/01/02 05:14:22;;;;;;;30.00;13.15;;;1.30;99.90;;;;;;20644986;28;20497;-75
2022/01/02 05:24:24;;;;;;;160.75;23.92;;;1.20;99.90;;;;;;20644665;28;20493;-75
2022/01/02 05:34:25;;;;;;;52.25;16.20;;;1.30;99.90;;;;;;20644142;28;20034;-75
2022/01/02 05:44:26;;;;;;;40.38;15.30;;;1.30;99.90;;;;;;20643706;28;20035;-74
2022/01/02 05:54:26;;;;;;;42.42;14.82;;;1.40;99.90;;;;;;20643378;28;20030;-75
2022/01/02 06:04:27;;;;;;;84.97;16.15;;;1.50;99.90;;;;;;20653140;28;20064;-75
2022/01/02 06:14:28;;;;;;;47.42;14.77;;;1.40;99.90;;;;;;20641944;28;20031;-75
2022/01/02 06:24:29;;;;;;;56.35;14.63;;;1.30;99.90;;;;;;20657114;28;20428;-75
2022/01/02 06:34:30;;;;;;;95.50;19.02;;;1.30;99.90;;;;;;20656655;28;20473;-75
2022/01/02 06:44:31;;;;;;;33.05;13.18;;;1.20;99.90;;;;;;20655667;28;20493;-76
2022/01/02 06:54:33;;;;;;;24.98;11.90;;;1.10;99.90;;;;;;20654645;28;20110;-75
2022/01/02 07:04:34;;;;;;;21.63;11.13;;;1.00;99.90;;;;;;20654352;28;20030;-75
2022/01/02 07:14:36;;;;;;;26.20;11.55;;;0.90;99.90;;;;;;20653341;28;20569;-75
2022/01/02 07:24:37;;;;;;;34.95;13.10;;;1.00;99.90;;;;;;20652809;28;20070;-76
2022/01/02 07:34:37;;;;;;;32.13;13.50;;;1.10;99.90;;;;;;20669270;28;20041;-75
2022/01/02 07:44:38;;;;;;;29.77;13.55;;;1.20;99.90;;;;;;20651218;28;20509;-75
2022/01/02 07:54:39;;;;;;;29.08;13.43;;;1.30;99.90;;;;;;20667680;28;20041;-75
2022/01/02 08:04:40;;;;;;;45.38;15.13;;;1.30;99.90;;;;;;20666762;28;20030;-76
2022/01/02 08:14:41;;;;;;;38.25;15.32;;;1.30;99.90;;;;;;20648666;28;20535;-76
2022/01/02 08:24:41;;;;;;;34.95;15.82;;;1.30;99.90;;;;;;20664686;28;20417;-77
2022/01/02 08:34:42;;;;;;;35.03;16.92;;;1.60;99.90;;;;;;20664723;28;20034;-76
2022/01/02 08:44:43;;;;;;;42.80;15.85;;;2.40;99.90;;;;;;20664135;28;20521;-77
2022/01/02 08:54:44;;;;;;;29.58;13.30;;;2.30;99.90;;;;;;20668996;28;20041;-78
2022/01/02 09:04:45;;;;;;;24.73;12.75;;;2.50;99.90;;;;;;20648122;28;20397;-78
2022/01/02 09:14:46;;;;;;;23.33;12.27;;;2.60;99.90;;;;;;20646119;28;20037;-78
2022/01/02 09:24:48;;;;;;;29.60;14.50;;;2.30;99.90;;;;;;20664063;28;20054;-78
2022/01/02 09:34:49;;;;;;;22.63;11.77;;;3.40;99.90;;;;;;20665895;28;20057;-78
2022/01/02 09:44:50;;;;;;;19.13;11.32;;;4.30;99.90;;;;;;20674995;28;20034;-78
2022/01/02 09:54:51;;;;;;;14.53;9.10;;;5.50;99.90;;;;;;20663728;28;20125;-78
2022/01/02 10:05:02;;;;;;;18.73;9.40;;;7.40;99.90;;;;;;20632428;28;20318;-77
2022/01/02 10:15:06;;;;;;;14.95;8.68;;;7.90;99.90;;;;;;20647880;28;20038;-79
2022/01/02 10:25:07;;;;;;;12.55;8.05;;;8.60;99.90;;;;;;20656781;28;20461;-79
2022/01/02 10:35:13;;;;;;;15.53;9.30;;;7.90;99.90;;;;;;20735301;28;20033;-79
2022/01/02 10:45:50;;;;;;;17.27;9.32;;;7.20;99.90;;;;;;20700970;28;20485;-79
2022/01/02 10:55:52;;;;;;;19.55;9.85;;;6.70;99.90;;;;;;20665843;28;20480;-79
2022/01/02 11:05:58;;;;;;;16.83;8.77;;;6.40;99.90;;;;;;20661567;28;20041;-79
2022/01/02 11:16:04;;;;;;;15.93;8.07;;;7.80;99.90;;;;;;20643330;28;20843;-79
2022/01/02 11:26:15;;;;;;;14.80;8.75;;;8.70;99.90;;;;;;20631450;28;20148;-78
2022/01/02 11:36:31;;;;;;;18.87;9.23;;;7.70;99.90;;;;;;20582644;28;20259;-79
2022/01/02 11:46:38;;;;;;;17.52;8.48;;;7.10;99.90;;;;;;20632603;28;20041;-78
2022/01/02 11:56:39;;;;;;;16.02;9.68;;;7.00;99.90;;;;;;20629429;28;20510;-77
2022/01/02 12:06:42;;;;;;;17.90;9.50;;;7.10;99.90;;;;;;20607401;28;20117;-77
2022/01/02 12:16:52;;;;;;;19.63;11.05;;;7.10;99.90;;;;;;20607528;28;20030;-77
2022/01/02 12:27:07;;;;;;;19.58;10.52;;;7.30;99.90;;;;;;20604022;28;20030;-78
2022/01/02 12:37:08;;;;;;;17.77;9.65;;;7.40;99.90;;;;;;20604315;28;20515;-79
2022/01/02 12:47:12;;;;;;;19.00;9.90;;;7.30;99.90;;;;;;20624311;28;20072;-77
2022/01/02 12:57:16;;;;;;;26.30;12.68;;;7.40;99.90;;;;;;20642660;28;20089;-77
2022/01/02 13:07:35;;;;;;;20.35;8.82;;;7.50;99.90;;;;;;20643427;28;20038;-78
2022/01/02 13:17:40;;;;;;;16.13;9.32;;;7.30;99.90;;;;;;20644115;28;20327;-77
2022/01/02 13:27:56;;;;;;;18.42;10.07;;;7.30;99.90;;;;;;20648870;28;20038;-78
2022/01/02 13:38:04;;;;;;;19.15;10.15;;;7.80;99.90;;;;;;20649509;28;20069;-79
2022/01/02 13:48:26;;;;;;;21.42;12.00;;;8.00;99.90;;;;;;20649979;28;20034;-79
2022/01/02 13:58:28;;;;;;;;;;;8.10;99.90;;;;;;20681122;28;20566;-78
2022/01/02 14:08:29;;;;;;;17.83;9.23;;;8.10;99.90;;;;;;20650138;28;19924;-78
2022/01/02 14:18:30;;;;;;;20.08;10.13;;;8.10;99.90;;;;;;20639950;28;20054;-78
2022/01/02 14:28:31;;;;;;;17.30;9.40;;;7.90;99.90;;;;;;20612508;28;20038;-77
2022/01/02 14:38:32;;;;;;;18.80;9.70;;;7.90;99.90;;;;;;20617400;28;20393;-77
2022/01/02 14:48:33;;;;;;;18.05;10.80;;;7.90;99.90;;;;;;20623570;28;20073;-77
2022/01/02 14:58:38;;;;;;;17.20;10.20;;;7.90;99.90;;;;;;20651476;28;20133;-77
2022/01/02 15:08:40;;;;;;;20.30;11.73;;;7.80;99.90;;;;;;20630682;28;20030;-77
2022/01/02 15:18:41;;;;;;;23.98;12.80;;;7.70;99.90;;;;;;20609928;28;20041;-77
2022/01/02 15:28:42;;;;;;;35.65;18.90;;;7.40;99.90;;;;;;20612328;28;20034;-77
2022/01/02 15:38:43;;;;;;;19.75;9.30;;;7.20;99.90;;;;;;20617150;28;20093;-76
2022/01/02 15:48:44;;;;;;;18.00;8.73;;;6.90;99.90;;;;;;20641107;28;20031;-76
2022/01/02 15:58:45;;;;;;;16.20;8.83;;;6.50;99.90;;;;;;20578631;28;20055;-77
2022/01/02 16:08:46;;;;;;;18.80;9.57;;;6.50;99.90;;;;;;20563593;28;20289;-77
2022/01/02 16:18:47;;;;;;;12.13;7.33;;;6.50;99.90;;;;;;20588796;28;20085;-77
2022/01/02 16:28:48;;;;;;;11.45;7.30;;;6.00;99.90;;;;;;20570833;28;20058;-76
2022/01/02 16:38:50;;;;;;;12.90;7.40;;;5.90;99.90;;;;;;20598125;28;20760;-74
2022/01/02 16:48:51;;;;;;;13.43;7.13;;;5.90;99.90;;;;;;20598999;28;20042;-75
2022/01/02 16:58:52;;;;;;;15.52;8.82;;;5.50;99.90;;;;;;20596879;28;20035;-75
2022/01/02 17:08:53;;;;;;;14.95;8.63;;;5.50;99.90;;;;;;20637272;28;20043;-74
2022/01/02 17:18:54;;;;;;;;;;;5.50;99.90;;;;;;20642567;28;20040;-74
2022/01/02 17:28:56;;;;;;;14.65;8.65;;;5.70;99.90;;;;;;20624226;28;19913;-75
2022/01/02 17:38:57;;;;;;;19.25;8.70;;;5.60;99.90;;;;;;20641073;28;20113;-75
2022/01/02 17:48:58;;;;;;;15.17;6.80;;;5.60;99.90;;;;;;20623751;28;20092;-75
2022/01/02 17:58:59;;;;;;;;;;;5.50;99.90;;;;;;20635642;28;20307;-75
2022/01/02 18:09:08;;;;;;;24.10;12.05;;;5.70;99.90;;;;;;20655300;28;20445;-75
2022/01/02 18:19:10;;;;;;;24.83;11.77;;;6.00;99.90;;;;;;20626405;28;20428;-75
2022/01/02 18:29:11;;;;;;;;;;;5.70;99.90;;;;;;20650838;28;20062;-74
2022/01/02 18:39:13;;;;;;;19.80;11.57;;;5.90;99.90;;;;;;20614734;28;20423;-75
2022/01/02 18:49:14;;;;;;;12.35;7.55;;;6.00;99.90;;;;;;20631116;28;20417;-75
2022/01/02 18:59:15;;;;;;;9.83;5.77;;;6.60;99.90;;;;;;20611830;28;20034;-75
2022/01/02 19:09:16;;;;;;;9.73;5.25;;;7.60;99.90;;;;;;20604400;28;20105;-75
2022/01/02 19:19:17;;;;;;;13.77;6.90;;;8.30;99.90;;;;;;20639985;28;20034;-74
2022/01/02 19:29:18;;;;;;;20.17;11.20;;;7.80;99.90;;;;;;20632543;28;20398;-74
2022/01/02 19:39:19;;;;;;;16.17;7.60;;;6.60;99.90;;;;;;20649399;28;20583;-74
2022/01/02 19:49:20;;;;;;;18.30;9.43;;;7.30;99.90;;;;;;20648734;28;20026;-74
2022/01/02 19:59:23;;;;;;;18.70;7.60;;;7.10;99.90;;;;;;20617905;28;20513;-73
2022/01/02 20:09:25;;;;;;;28.67;9.88;;;8.30;99.90;;;;;;20605189;28;20039;-74
2022/01/02 20:19:26;;;;;;;11.65;4.15;;;8.20;99.90;;;;;;20602071;28;20034;-74
2022/01/02 20:29:27;;;;;;;;;;;9.20;99.90;;;;;;20591690;28;20551;-74
2022/01/02 20:39:28;;;;;;;10.95;2.15;;;9.60;99.90;;;;;;20585129;28;19917;-74
2022/01/02 20:49:29;;;;;;;7.50;1.83;;;10.50;99.90;;;;;;20643580;28;20039;-75
2022/01/02 20:59:30;;;;;;;4.17;1.90;;;11.00;99.90;;;;;;20607416;28;20046;-74
2022/01/02 21:09:31;;;;;;;9.83;1.80;;;11.00;99.90;;;;;;20620927;28;20117;-74
2022/01/02 21:19:32;;;;;;;3.80;1.67;;;11.10;99.90;;;;;;20641999;28;20485;-74
2022/01/02 21:29:33;;;;;;;4.07;1.37;;;11.40;99.90;;;;;;20644649;28;20727;-75
2022/01/02 21:39:34;;;;;;;8.70;1.90;;;11.20;99.90;;;;;;20658336;28;20417;-74
2022/01/02 21:49:34;;;;;;;6.87;2.13;;;11.30;99.90;;;;;;20651730;28;20395;-74
2022/01/02 21:59:35;;;;;;;3.40;1.70;;;11.20;99.90;;;;;;20633607;28;20026;-75
2022/01/02 22:09:38;;;;;;;5.20;1.67;;;11.30;99.90;;;;;;20676256;28;20042;-75
2022/01/02 22:19:39;;;;;;;7.00;2.50;;;11.40;99.90;;;;;;20675303;28;20033;-74
2022/01/02 22:29:43;;;;;;;3.20;1.77;;;11.50;99.90;;;;;;20673250;28;20053;-75
2022/01/02 22:39:44;;;;;;;4.18;1.30;;;11.40;99.90;;;;;;20673504;28;20062;-74
2022/01/02 22:49:49;;;;;;;8.30;1.47;;;11.40;99.90;;;;;;20672642;28;20441;-74
2022/01/02 22:59:51;;;;;;;4.95;1.73;;;11.50;99.90;;;;;;20668413;28;20031;-75
2022/01/02 23:09:52;;;;;;;7.00;1.25;;;11.50;99.90;;;;;;20654350;28;20080;-74
2022/01/02 23:19:54;;;;;;;4.93;1.30;;;11.60;99.90;;;;;;20669442;28;20524;-74
2022/01/02 23:29:55;;;;;;;4.00;1.40;;;11.60;99.90;;;;;;20670115;28;20034;-75
2022/01/02 23:39:57;;;;;;;6.47;1.90;;;11.80;99.90;;;;;;20669507;28;20285;-74
2022/01/02 23:50:11;;;;;;;5.72;1.23;;;11.70;99.90;;;;;;20668619;28;20031;-74
